sensor_id;sensor_type;location;lat;lon;timestamp;temperature;humidity
7014;DHT22;3547;50.774;12.918;2022-12-18T00:01:36;-10.70;99.90
7014;DHT22;3547;50.774;12.918;2022-12-18T00:04:07;-10.70;99.90
7014;DHT22;3547;50.774;12.918;2022-12-18T00:06:38;-10.80;99.90
7014;DHT22;3547;50.774;12.918;2022-12-18T00:09:05;-10.90;99.90
7014;DHT22;3547;50.774;12.918;2022-12-18T00:11:31;-11.00;99.90
7014;DHT22;3547;50.774;12.918;2022-12-18T00:13:59;-10.90;99.90
7014;DHT22;3547;50.774;12.918;2022-12-18T00:19:47;-11.10;99.90
7014;DHT22;3547;50.774;12.918;2022-12-18T00:22:13;-10.90;99.90
7014;DHT22;3547;50.774;12.918;2022-12-18T00:24:40;-10.80;99.90
7014;DHT22;3547;50.774;12.918;2022-12-18T00:30:42;-10.80;99.90
7014;DHT22;3547;50.774;12.918;2022-12-18T00:33:08;-10.90;99.90
7014;DHT22;3547;50.774;12.918;2022-12-18T00:35:35;-10.90;99.90
7014;DHT22;3547;50.774;12.918;2022-12-18T00:38:01;-10.80;99.90
7014;DHT22;3547;50.774;12.918;2022-12-18T00:40:27;-10.80;99.90
7014;DHT22;3547;50.774;12.918;2022-12-18T00:42:53;-10.90;99.90
7014;DHT22;3547;50.774;12.918;2022-12-18T00:45:29;-10.80;99.90
7014;DHT22;3547;50.774;12.918;2022-12-18T00:47:56;-10.80;99.90
7014;DHT22;3547;50.774;12.918;2022-12-18T00:50:24;-10.80;99.90
7014;DHT22;3547;50.774;12.918;2022-12-18T00:56:12;-10.90;99.90
7014;DHT22;3547;50.774;12.918;2022-12-18T00:58:39;-11.10;99.90
7014;DHT22;3547;50.774;12.918;2022-12-18T01:01:05;-11.00;99.90
7014;DHT22;3547;50.774;12.918;2022-12-18T01:03:31;-10.90;99.90
7014;DHT22;3547;50.774;12.918;2022-12-18T01:12:42;-10.90;99.90
7014;DHT22;3547;50.774;12.918;2022-12-18T01:15:10;-10.90;99.90
7014;DHT22;3547;50.774;12.918;2022-12-18T01:17:37;-10.90;99.90
7014;DHT22;3547;50.774;12.918;2022-12-18T01:20:04;-10.80;99.90
7014;DHT22;3547;50.774;12.918;2022-12-18T01:22:33;-10.90;99.90
7014;DHT22;3547;50.774;12.918;2022-12-18T01:24:59;-10.80;99.90
7014;DHT22;3547;50.774;12.918;2022-12-18T01:31:08;-10.70;99.90
7014;DHT22;3547;50.774;12.918;2022-12-18T01:33:34;-10.70;99.90
7014;DHT22;3547;50.774;12.918;2022-12-18T01:36:00;-10.70;99.90
7014;DHT22;3547;50.774;12.918;2022-12-18T01:38:28;-10.90;99.90
7014;DHT22;3547;50.774;12.918;2022-12-18T01:40:59;-11.00;99.90
7014;DHT22;3547;50.774;12.918;2022-12-18T01:43:52;-10.90;99.90
7014;DHT22;3547;50.774;12.918;2022-12-18T01:46:20;-10.90;99.90
7014;DHT22;3547;50.774;12.918;2022-12-18T01:48:48;-10.80;99.90
7014;DHT22;3547;50.774;12.918;2022-12-18T01:51:16;-10.90;99.90
7014;DHT22;3547;50.774;12.918;2022-12-18T01:53:43;-11.00;99.90
7014;DHT22;3547;50.774;12.918;2022-12-18T01:56:14;-10.90;99.90
7014;DHT22;3547;50.774;12.918;2022-12-18T01:59:03;-10.90;99.90
7014;DHT22;3547;50.774;12.918;2022-12-18T02:01:30;-10.90;99.90
7014;DHT22;3547;50.774;12.918;2022-12-18T02:04:21;-11.10;99.90
7014;DHT22;3547;50.774;12.918;2022-12-18T02:06:55;-11.30;99.90
7014;DHT22;3547;50.774;12.918;2022-12-18T02:09:28;-11.30;99.90
7014;DHT22;3547;50.774;12.918;2022-12-18T02:17:21;-11.30;99.90
7014;DHT22;3547;50.774;12.918;2022-12-18T02:23:04;-11.50;99.90
7014;DHT22;3547;50.774;12.918;2022-12-18T02:25:57;-11.60;99.90
7014;DHT22;3547;50.774;12.918;2022-12-18T02:28:32;-11.60;99.90
7014;DHT22;3547;50.774;12.918;2022-12-18T02:31:02;-11.60;99.90
7014;DHT22;3547;50.774;12.918;2022-12-18T02:33:31;-11.50;99.90
7014;DHT22;3547;50.774;12.918;2022-12-18T02:35:59;-11.50;99.90
7014;DHT22;3547;50.774;12.918;2022-12-18T02:38:27;-11.60;99.90
7014;DHT22;3547;50.774;12.918;2022-12-18T02:40:54;-11.70;99.90
7014;DHT22;3547;50.774;12.918;2022-12-18T02:43:21;-11.80;99.90
7014;DHT22;3547;50.774;12.918;2022-12-18T02:45:58;-11.90;99.90
7014;DHT22;3547;50.774;12.918;2022-12-18T02:48:29;-12.10;99.90
7014;DHT22;3547;50.774;12.918;2022-12-18T02:51:26;-12.10;99.90
7014;DHT22;3547;50.774;12.918;2022-12-18T02:54:13;-12.10;99.90
7014;DHT22;3547;50.774;12.918;2022-12-18T02:56:50;-12.10;99.90
7014;DHT22;3547;50.774;12.918;2022-12-18T02:59:44;-12.00;99.90
7014;DHT22;3547;50.774;12.918;2022-12-18T03:02:23;-12.10;99.90
7014;DHT22;3547;50.774;12.918;2022-12-18T03:05:01;-12.00;99.90
7014;DHT22;3547;50.774;12.918;2022-12-18T03:07:43;-12.10;99.90
7014;DHT22;3547;50.774;12.918;2022-12-18T03:10:14;-12.10;99.90
7014;DHT22;3547;50.774;12.918;2022-12-18T03:12:50;-12.10;99.90
7014;DHT22;3547;50.774;12.918;2022-12-18T03:15:25;-12.20;99.90
7014;DHT22;3547;50.774;12.918;2022-12-18T03:17:57;-12.20;99.90
7014;DHT22;3547;50.774;12.918;2022-12-18T03:20:25;-12.10;99.90
7014;DHT22;3547;50.774;12.918;2022-12-18T03:22:59;-12.10;99.90
7014;DHT22;3547;50.774;12.918;2022-12-18T03:25:28;-12.10;99.90
7014;DHT22;3547;50.774;12.918;2022-12-18T03:27:59;-12.10;99.90
7014;DHT22;3547;50.774;12.918;2022-12-18T03:30:28;-12.20;99.90
7014;DHT22;3547;50.774;12.918;2022-12-18T03:33:12;-12.30;99.90
7014;DHT22;3547;50.774;12.918;2022-12-18T03:35:43;-12.40;99.90
7014;DHT22;3547;50.774;12.918;2022-12-18T03:41:32;-12.30;99.90
7014;DHT22;3547;50.774;12.918;2022-12-18T03:44:13;-12.20;99.90
7014;DHT22;3547;50.774;12.918;2022-12-18T03:52:11;-12.20;99.90
7014;DHT22;3547;50.774;12.918;2022-12-18T03:54:41;-12.20;99.90
7014;DHT22;3547;50.774;12.918;2022-12-18T04:00:31;-12.20;99.90
7014;DHT22;3547;50.774;12.918;2022-12-18T04:02:59;-12.40;99.90
7014;DHT22;3547;50.774;12.918;2022-12-18T04:05:27;-12.40;99.90
7014;DHT22;3547;50.774;12.918;2022-12-18T04:07:55;-12.60;99.90
7014;DHT22;3547;50.774;12.918;2022-12-18T04:10:22;-12.70;99.90
7014;DHT22;3547;50.774;12.918;2022-12-18T04:12:48;-12.80;99.90
7014;DHT22;3547;50.774;12.918;2022-12-18T04:15:14;-12.90;99.90
7014;DHT22;3547;50.774;12.918;2022-12-18T04:17:47;-13.00;99.90
7014;DHT22;3547;50.774;12.918;2022-12-18T04:20:14;-12.80;99.90
7014;DHT22;3547;50.774;12.918;2022-12-18T04:22:40;-12.90;99.90
7014;DHT22;3547;50.774;12.918;2022-12-18T04:25:07;-12.90;99.90
7014;DHT22;3547;50.774;12.918;2022-12-18T04:27:33;-12.90;99.90
7014;DHT22;3547;50.774;12.918;2022-12-18T04:30:00;-12.90;99.90
7014;DHT22;3547;50.774;12.918;2022-12-18T04:32:26;-12.90;99.90
7014;DHT22;3547;50.774;12.918;2022-12-18T04:34:52;-13.10;99.90
7014;DHT22;3547;50.774;12.918;2022-12-18T04:37:18;-13.10;99.90
7014;DHT22;3547;50.774;12.918;2022-12-18T04:43:06;-13.20;99.90
7014;DHT22;3547;50.774;12.918;2022-12-18T04:45:32;-13.10;99.90
7014;DHT22;3547;50.774;12.918;2022-12-18T04:48:00;-13.10;99.90
7014;DHT22;3547;50.774;12.918;2022-12-18T04:50:26;-13.20;99.90
7014;DHT22;3547;50.774;12.918;2022-12-18T04:52:52;-13.20;99.90
7014;DHT22;3547;50.774;12.918;2022-12-18T04:55:19;-13.10;99.90
7014;DHT22;3547;50.774;12.918;2022-12-18T04:57:45;-13.10;99.90
7014;DHT22;3547;50.774;12.918;2022-12-18T05:00:12;-13.10;99.90
7014;DHT22;3547;50.774;12.918;2022-12-18T05:02:38;-13.20;99.90
7014;DHT22;3547;50.774;12.918;2022-12-18T05:05:05;-13.20;99.90
7014;DHT22;3547;50.774;12.918;2022-12-18T05:07:31;-13.10;99.90
7014;DHT22;3547;50.774;12.918;2022-12-18T05:09:57;-12.90;99.90
7014;DHT22;3547;50.774;12.918;2022-12-18T05:12:23;-12.80;99.90
7014;DHT22;3547;50.774;12.918;2022-12-18T05:14:49;-12.70;99.90
7014;DHT22;3547;50.774;12.918;2022-12-18T05:17:15;-12.80;99.90
7014;DHT22;3547;50.774;12.918;2022-12-18T05:19:42;-12.80;99.90
7014;DHT22;3547;50.774;12.918;2022-12-18T05:22:08;-12.70;99.90
7014;DHT22;3547;50.774;12.918;2022-12-18T05:24:35;-12.70;99.90
7014;DHT22;3547;50.774;12.918;2022-12-18T05:27:01;-12.80;99.90
7014;DHT22;3547;50.774;12.918;2022-12-18T05:29:27;-12.70;99.90
7014;DHT22;3547;50.774;12.918;2022-12-18T05:31:53;-12.70;99.90
7014;DHT22;3547;50.774;12.918;2022-12-18T05:34:19;-12.70;99.90
7014;DHT22;3547;50.774;12.918;2022-12-18T05:36:45;-12.70;99.90
7014;DHT22;3547;50.774;12.918;2022-12-18T05:39:12;-12.70;99.90
7014;DHT22;3547;50.774;12.918;2022-12-18T05:41:38;-12.60;99.90
7014;DHT22;3547;50.774;12.918;2022-12-18T05:44:04;-12.60;99.90
7014;DHT22;3547;50.774;12.918;2022-12-18T05:46:30;-12.50;99.90
7014;DHT22;3547;50.774;12.918;2022-12-18T05:48:59;-12.40;99.90
7014;DHT22;3547;50.774;12.918;2022-12-18T05:54:58;-12.50;99.90
7014;DHT22;3547;50.774;12.918;2022-12-18T05:57:24;-12.40;99.90
7014;DHT22;3547;50.774;12.918;2022-12-18T05:59:51;-12.30;99.90
7014;DHT22;3547;50.774;12.918;2022-12-18T06:02:17;-12.20;99.90
7014;DHT22;3547;50.774;12.918;2022-12-18T06:04:43;-12.20;99.90
7014;DHT22;3547;50.774;12.918;2022-12-18T06:07:09;-12.30;99.90
7014;DHT22;3547;50.774;12.918;2022-12-18T06:09:35;-12.30;99.90
7014;DHT22;3547;50.774;12.918;2022-12-18T06:12:01;-12.40;99.90
7014;DHT22;3547;50.774;12.918;2022-12-18T06:14:27;-12.50;99.90
7014;DHT22;3547;50.774;12.918;2022-12-18T06:16:54;-12.40;99.90
7014;DHT22;3547;50.774;12.918;2022-12-18T06:19:20;-12.60;99.90
7014;DHT22;3547;50.774;12.918;2022-12-18T06:21:46;-12.70;99.90
7014;DHT22;3547;50.774;12.918;2022-12-18T06:24:12;-12.80;99.90
7014;DHT22;3547;50.774;12.918;2022-12-18T06:26:39;-12.80;99.90
7014;DHT22;3547;50.774;12.918;2022-12-18T06:29:05;-12.80;99.90
7014;DHT22;3547;50.774;12.918;2022-12-18T06:31:31;-12.80;99.90
7014;DHT22;3547;50.774;12.918;2022-12-18T06:33:58;-12.80;99.90
7014;DHT22;3547;50.774;12.918;2022-12-18T06:36:26;-12.80;99.90
7014;DHT22;3547;50.774;12.918;2022-12-18T06:38:56;-12.70;99.90
7014;DHT22;3547;50.774;12.918;2022-12-18T06:41:22;-12.60;99.90
7014;DHT22;3547;50.774;12.918;2022-12-18T06:43:49;-12.60;99.90
7014;DHT22;3547;50.774;12.918;2022-12-18T06:46:15;-12.60;99.90
7014;DHT22;3547;50.774;12.918;2022-12-18T06:48:42;-12.70;99.90
7014;DHT22;3547;50.774;12.918;2022-12-18T06:51:08;-12.60;99.90
7014;DHT22;3547;50.774;12.918;2022-12-18T06:53:34;-12.60;99.90
7014;DHT22;3547;50.774;12.918;2022-12-18T06:56:05;-12.50;99.90
7014;DHT22;3547;50.774;12.918;2022-12-18T06:58:34;-12.50;99.90
7014;DHT22;3547;50.774;12.918;2022-12-18T07:01:02;-12.60;99.90
7014;DHT22;3547;50.774;12.918;2022-12-18T07:03:28;-12.60;99.90
7014;DHT22;3547;50.774;12.918;2022-12-18T07:06:04;-12.70;99.90
7014;DHT22;3547;50.774;12.918;2022-12-18T07:08:31;-12.60;99.90
7014;DHT22;3547;50.774;12.918;2022-12-18T07:10:58;-12.60;99.90
7014;DHT22;3547;50.774;12.918;2022-12-18T07:13:27;-12.40;99.90
7014;DHT22;3547;50.774;12.918;2022-12-18T07:15:53;-12.40;99.90
7014;DHT22;3547;50.774;12.918;2022-12-18T07:18:19;-12.30;99.90
7014;DHT22;3547;50.774;12.918;2022-12-18T07:20:45;-12.30;99.90
7014;DHT22;3547;50.774;12.918;2022-12-18T07:23:14;-12.30;99.90
7014;DHT22;3547;50.774;12.918;2022-12-18T07:25:43;-12.20;99.90
7014;DHT22;3547;50.774;12.918;2022-12-18T07:28:10;-12.10;1.00
7014;DHT22;3547;50.774;12.918;2022-12-18T07:30:37;-11.90;1.00
7014;DHT22;3547;50.774;12.918;2022-12-18T07:33:04;-11.80;1.00
7014;DHT22;3547;50.774;12.918;2022-12-18T07:35:30;-11.90;99.90
7014;DHT22;3547;50.774;12.918;2022-12-18T07:41:19;-11.90;99.90
7014;DHT22;3547;50.774;12.918;2022-12-18T07:43:46;-11.70;1.00
7014;DHT22;3547;50.774;12.918;2022-12-18T07:46:13;-11.70;1.00
7014;DHT22;3547;50.774;12.918;2022-12-18T07:48:40;-11.70;99.90
7014;DHT22;3547;50.774;12.918;2022-12-18T07:51:07;-11.60;99.90
7014;DHT22;3547;50.774;12.918;2022-12-18T07:53:34;-11.60;99.90
7014;DHT22;3547;50.774;12.918;2022-12-18T07:56:04;-11.60;99.90
7014;DHT22;3547;50.774;12.918;2022-12-18T07:58:31;-11.70;99.90
7014;DHT22;3547;50.774;12.918;2022-12-18T08:03:30;-11.40;99.90
7014;DHT22;3547;50.774;12.918;2022-12-18T08:06:08;-11.00;1.00
7014;DHT22;3547;50.774;12.918;2022-12-18T08:08:53;-10.60;1.00
7014;DHT22;3547;50.774;12.918;2022-12-18T08:11:20;-10.50;1.00
7014;DHT22;3547;50.774;12.918;2022-12-18T08:13:46;-10.30;1.00
7014;DHT22;3547;50.774;12.918;2022-12-18T08:16:12;-10.20;1.00
7014;DHT22;3547;50.774;12.918;2022-12-18T08:22:02;-9.90;1.00
7014;DHT22;3547;50.774;12.918;2022-12-18T08:24:28;-9.80;1.00
7014;DHT22;3547;50.774;12.918;2022-12-18T08:26:54;-9.70;1.00
7014;DHT22;3547;50.774;12.918;2022-12-18T08:29:20;-9.70;1.00
7014;DHT22;3547;50.774;12.918;2022-12-18T08:31:46;-9.50;1.00
7014;DHT22;3547;50.774;12.918;2022-12-18T08:34:13;-9.40;1.00
7014;DHT22;3547;50.774;12.918;2022-12-18T08:36:39;-9.50;99.90
7014;DHT22;3547;50.774;12.918;2022-12-18T08:39:05;-9.50;99.90
7014;DHT22;3547;50.774;12.918;2022-12-18T08:41:31;-9.40;99.90
7014;DHT22;3547;50.774;12.918;2022-12-18T08:43:57;-9.50;99.90
7014;DHT22;3547;50.774;12.918;2022-12-18T08:46:56;-9.30;99.90
7014;DHT22;3547;50.774;12.918;2022-12-18T08:49:22;-9.20;99.90
7014;DHT22;3547;50.774;12.918;2022-12-18T08:51:48;-9.10;99.90
7014;DHT22;3547;50.774;12.918;2022-12-18T08:54:14;-9.00;99.90
7014;DHT22;3547;50.774;12.918;2022-12-18T08:56:43;-8.90;99.90
7014;DHT22;3547;50.774;12.918;2022-12-18T08:59:13;-8.90;99.90
7014;DHT22;3547;50.774;12.918;2022-12-18T09:01:39;-8.70;99.90
7014;DHT22;3547;50.774;12.918;2022-12-18T09:04:05;-8.80;99.90
7014;DHT22;3547;50.774;12.918;2022-12-18T09:06:31;-8.80;99.90
7014;DHT22;3547;50.774;12.918;2022-12-18T09:08:57;-8.60;99.90
7014;DHT22;3547;50.774;12.918;2022-12-18T09:11:25;-8.50;99.90
7014;DHT22;3547;50.774;12.918;2022-12-18T09:13:52;-8.50;99.90
7014;DHT22;3547;50.774;12.918;2022-12-18T09:16:19;-8.40;99.90
7014;DHT22;3547;50.774;12.918;2022-12-18T09:18:46;-8.30;99.90
7014;DHT22;3547;50.774;12.918;2022-12-18T09:21:15;-8.10;99.90
7014;DHT22;3547;50.774;12.918;2022-12-18T09:23:41;-8.00;1.00
7014;DHT22;3547;50.774;12.918;2022-12-18T09:26:08;-7.90;99.90
7014;DHT22;3547;50.774;12.918;2022-12-18T09:28:37;-7.80;99.90
7014;DHT22;3547;50.774;12.918;2022-12-18T09:31:06;-7.70;99.90
7014;DHT22;3547;50.774;12.918;2022-12-18T09:33:35;-7.60;99.90
7014;DHT22;3547;50.774;12.918;2022-12-18T09:36:03;-7.50;99.90
7014;DHT22;3547;50.774;12.918;2022-12-18T09:38:33;-7.40;99.90
7014;DHT22;3547;50.774;12.918;2022-12-18T09:43:56;-7.20;99.90
7014;DHT22;3547;50.774;12.918;2022-12-18T09:46:33;-7.10;99.90
7014;DHT22;3547;50.774;12.918;2022-12-18T09:49:07;-6.90;1.00
7014;DHT22;3547;50.774;12.918;2022-12-18T09:51:52;-6.70;1.00
7014;DHT22;3547;50.774;12.918;2022-12-18T09:54:26;-6.50;1.00
7014;DHT22;3547;50.774;12.918;2022-12-18T09:56:56;-6.40;1.00
7014;DHT22;3547;50.774;12.918;2022-12-18T09:59:31;-6.20;1.00
7014;DHT22;3547;50.774;12.918;2022-12-18T10:01:58;-6.00;1.00
7014;DHT22;3547;50.774;12.918;2022-12-18T10:04:24;-5.90;1.00
7014;DHT22;3547;50.774;12.918;2022-12-18T10:20:52;-5.10;1.00
7014;DHT22;3547;50.774;12.918;2022-12-18T10:26:11;-4.80;1.00
7014;DHT22;3547;50.774;12.918;2022-12-18T10:28:40;-4.70;1.00
7014;DHT22;3547;50.774;12.918;2022-12-18T10:31:12;-4.50;1.00
7014;DHT22;3547;50.774;12.918;2022-12-18T10:33:41;-4.40;1.00
7014;DHT22;3547;50.774;12.918;2022-12-18T10:36:08;-4.20;1.00
7014;DHT22;3547;50.774;12.918;2022-12-18T10:38:34;-4.10;1.00
7014;DHT22;3547;50.774;12.918;2022-12-18T10:43:44;-3.90;1.00
7014;DHT22;3547;50.774;12.918;2022-12-18T10:46:16;-3.80;1.00
7014;DHT22;3547;50.774;12.918;2022-12-18T10:51:27;-3.50;1.00
7014;DHT22;3547;50.774;12.918;2022-12-18T10:53:58;-3.30;1.00
7014;DHT22;3547;50.774;12.918;2022-12-18T10:56:27;-3.20;1.00
7014;DHT22;3547;50.774;12.918;2022-12-18T10:59:04;-3.00;1.00
7014;DHT22;3547;50.774;12.918;2022-12-18T11:01:52;-3.00;1.00
7014;DHT22;3547;50.774;12.918;2022-12-18T11:04:28;-2.80;1.00
7014;DHT22;3547;50.774;12.918;2022-12-18T11:07:04;-2.60;1.00
7014;DHT22;3547;50.774;12.918;2022-12-18T11:09:35;-2.50;99.90
7014;DHT22;3547;50.774;12.918;2022-12-18T11:12:22;-2.40;99.90
7014;DHT22;3547;50.774;12.918;2022-12-18T11:14:51;-2.30;1.00
7014;DHT22;3547;50.774;12.918;2022-12-18T11:19:53;-2.00;1.00
7014;DHT22;3547;50.774;12.918;2022-12-18T11:22:29;-2.00;99.90
7014;DHT22;3547;50.774;12.918;2022-12-18T11:24:59;-1.90;99.90
7014;DHT22;3547;50.774;12.918;2022-12-18T11:27:26;-1.80;99.90
7014;DHT22;3547;50.774;12.918;2022-12-18T11:30:20;-1.60;99.90
7014;DHT22;3547;50.774;12.918;2022-12-18T11:35:59;-1.60;99.90
7014;DHT22;3547;50.774;12.918;2022-12-18T11:38:35;-1.50;99.90
7014;DHT22;3547;50.774;12.918;2022-12-18T11:41:34;-1.40;99.90
7014;DHT22;3547;50.774;12.918;2022-12-18T11:44:41;-1.20;99.90
7014;DHT22;3547;50.774;12.918;2022-12-18T11:52:52;-1.30;99.90
7014;DHT22;3547;50.774;12.918;2022-12-18T11:55:28;-1.30;99.90
7014;DHT22;3547;50.774;12.918;2022-12-18T12:00:26;-1.20;99.90
7014;DHT22;3547;50.774;12.918;2022-12-18T12:05:45;-1.10;99.90
7014;DHT22;3547;50.774;12.918;2022-12-18T12:19:50;-0.20;99.90
7014;DHT22;3547;50.774;12.918;2022-12-18T12:22:24;0.00;99.90
7014;DHT22;3547;50.774;12.918;2022-12-18T12:30:18;0.10;99.90
7014;DHT22;3547;50.774;12.918;2022-12-18T12:41:45;0.30;99.90
7014;DHT22;3547;50.774;12.918;2022-12-18T12:44:55;0.00;99.90
7014;DHT22;3547;50.774;12.918;2022-12-18T12:47:27;0.00;99.90
7014;DHT22;3547;50.774;12.918;2022-12-18T12:49:54;0.00;99.90
7014;DHT22;3547;50.774;12.918;2022-12-18T12:52:37;0.00;99.90
7014;DHT22;3547;50.774;12.918;2022-12-18T12:55:21;-0.20;99.90
7014;DHT22;3547;50.774;12.918;2022-12-18T12:58:15;-0.20;99.90
7014;DHT22;3547;50.774;12.918;2022-12-18T13:03:53;-0.50;99.90
7014;DHT22;3547;50.774;12.918;2022-12-18T13:09:04;-0.70;99.90
7014;DHT22;3547;50.774;12.918;2022-12-18T13:14:31;-1.00;99.90
7014;DHT22;3547;50.774;12.918;2022-12-18T13:17:34;-1.30;99.90
7014;DHT22;3547;50.774;12.918;2022-12-18T13:20:07;-1.30;99.90
7014;DHT22;3547;50.774;12.918;2022-12-18T13:22:45;-1.20;99.90
7014;DHT22;3547;50.774;12.918;2022-12-18T13:29:06;-1.10;99.90
7014;DHT22;3547;50.774;12.918;2022-12-18T13:31:02;-1.10;99.90
7014;DHT22;3547;50.774;12.918;2022-12-18T13:36:04;-1.10;99.90
7014;DHT22;3547;50.774;12.918;2022-12-18T13:38:37;-1.30;99.90
7014;DHT22;3547;50.774;12.918;2022-12-18T13:41:26;-1.50;99.90
7014;DHT22;3547;50.774;12.918;2022-12-18T13:43:57;-1.60;99.90
7014;DHT22;3547;50.774;12.918;2022-12-18T13:46:46;-1.80;99.90
7014;DHT22;3547;50.774;12.918;2022-12-18T13:51:44;-2.00;99.90
7014;DHT22;3547;50.774;12.918;2022-12-18T13:54:33;-2.40;99.90
7014;DHT22;3547;50.774;12.918;2022-12-18T13:57:01;-2.40;99.90
7014;DHT22;3547;50.774;12.918;2022-12-18T13:59:36;-2.40;99.90
7014;DHT22;3547;50.774;12.918;2022-12-18T14:02:21;-2.50;99.90
7014;DHT22;3547;50.774;12.918;2022-12-18T14:04:50;-2.50;99.90
7014;DHT22;3547;50.774;12.918;2022-12-18T14:07:25;-2.60;99.90
7014;DHT22;3547;50.774;12.918;2022-12-18T14:09:59;-2.70;99.90
7014;DHT22;3547;50.774;12.918;2022-12-18T14:12:33;-2.70;99.90
7014;DHT22;3547;50.774;12.918;2022-12-18T14:20:43;-3.00;99.90
7014;DHT22;3547;50.774;12.918;2022-12-18T14:26:03;-3.00;99.90
7014;DHT22;3547;50.774;12.918;2022-12-18T14:28:30;-3.00;99.90
7014;DHT22;3547;50.774;12.918;2022-12-18T14:30:56;-3.10;99.90
7014;DHT22;3547;50.774;12.918;2022-12-18T14:33:24;-3.10;99.90
7014;DHT22;3547;50.774;12.918;2022-12-18T14:36:04;-3.10;99.90
7014;DHT22;3547;50.774;12.918;2022-12-18T14:38:38;-3.20;99.90
7014;DHT22;3547;50.774;12.918;2022-12-18T14:41:13;-3.30;99.90
7014;DHT22;3547;50.774;12.918;2022-12-18T14:43:42;-3.30;99.90
7014;DHT22;3547;50.774;12.918;2022-12-18T14:46:37;-3.40;99.90
7014;DHT22;3547;50.774;12.918;2022-12-18T14:51:53;-3.50;99.90
7014;DHT22;3547;50.774;12.918;2022-12-18T14:54:21;-3.70;99.90
7014;DHT22;3547;50.774;12.918;2022-12-18T14:57:02;-3.70;99.90
7014;DHT22;3547;50.774;12.918;2022-12-18T14:59:30;-3.80;99.90
7014;DHT22;3547;50.774;12.918;2022-12-18T15:02:23;-3.90;99.90
7014;DHT22;3547;50.774;12.918;2022-12-18T15:05:14;-3.90;99.90
7014;DHT22;3547;50.774;12.918;2022-12-18T15:07:44;-4.00;99.90
7014;DHT22;3547;50.774;12.918;2022-12-18T15:10:17;-4.10;99.90
7014;DHT22;3547;50.774;12.918;2022-12-18T15:20:49;-4.20;99.90
7014;DHT22;3547;50.774;12.918;2022-12-18T15:23:21;-4.30;99.90
7014;DHT22;3547;50.774;12.918;2022-12-18T15:26:01;-4.30;99.90
7014;DHT22;3547;50.774;12.918;2022-12-18T15:34:04;-4.40;99.90
7014;DHT22;3547;50.774;12.918;2022-12-18T15:36:30;-4.40;99.90
7014;DHT22;3547;50.774;12.918;2022-12-18T15:38:59;-4.40;99.90
7014;DHT22;3547;50.774;12.918;2022-12-18T15:41:25;-4.40;99.90
7014;DHT22;3547;50.774;12.918;2022-12-18T15:43:52;-4.40;99.90
7014;DHT22;3547;50.774;12.918;2022-12-18T15:46:24;-4.40;99.90
7014;DHT22;3547;50.774;12.918;2022-12-18T15:48:55;-4.40;99.90
7014;DHT22;3547;50.774;12.918;2022-12-18T15:51:42;-4.40;99.90
7014;DHT22;3547;50.774;12.918;2022-12-18T15:54:12;-4.40;99.90
7014;DHT22;3547;50.774;12.918;2022-12-18T15:56:40;-4.50;99.90
7014;DHT22;3547;50.774;12.918;2022-12-18T15:59:24;-4.40;99.90
7014;DHT22;3547;50.774;12.918;2022-12-18T16:01:51;-4.40;99.90
7014;DHT22;3547;50.774;12.918;2022-12-18T16:04:21;-4.40;99.90
7014;DHT22;3547;50.774;12.918;2022-12-18T16:06:49;-4.30;99.90
7014;DHT22;3547;50.774;12.918;2022-12-18T16:09:17;-4.30;99.90
7014;DHT22;3547;50.774;12.918;2022-12-18T16:11:44;-4.30;99.90
7014;DHT22;3547;50.774;12.918;2022-12-18T16:14:22;-4.30;99.90
7014;DHT22;3547;50.774;12.918;2022-12-18T16:16:52;-4.30;99.90
7014;DHT22;3547;50.774;12.918;2022-12-18T16:19:18;-4.20;99.90
7014;DHT22;3547;50.774;12.918;2022-12-18T16:21:46;-4.30;99.90
7014;DHT22;3547;50.774;12.918;2022-12-18T16:24:17;-4.20;99.90
7014;DHT22;3547;50.774;12.918;2022-12-18T16:26:44;-4.20;99.90
7014;DHT22;3547;50.774;12.918;2022-12-18T16:29:11;-4.10;99.90
7014;DHT22;3547;50.774;12.918;2022-12-18T16:31:37;-4.10;99.90
7014;DHT22;3547;50.774;12.918;2022-12-18T16:34:33;-4.00;99.90
7014;DHT22;3547;50.774;12.918;2022-12-18T16:37:05;-3.90;99.90
7014;DHT22;3547;50.774;12.918;2022-12-18T16:39:33;-3.90;99.90
7014;DHT22;3547;50.774;12.918;2022-12-18T16:42:01;-3.90;99.90
7014;DHT22;3547;50.774;12.918;2022-12-18T16:44:28;-3.90;99.90
7014;DHT22;3547;50.774;12.918;2022-12-18T16:46:54;-3.80;99.90
7014;DHT22;3547;50.774;12.918;2022-12-18T16:49:21;-3.80;99.90
7014;DHT22;3547;50.774;12.918;2022-12-18T16:51:47;-3.80;99.90
7014;DHT22;3547;50.774;12.918;2022-12-18T16:54:13;-3.90;99.90
7014;DHT22;3547;50.774;12.918;2022-12-18T16:56:40;-3.80;99.90
7014;DHT22;3547;50.774;12.918;2022-12-18T16:59:10;-3.80;99.90
7014;DHT22;3547;50.774;12.918;2022-12-18T17:01:37;-3.80;99.90
7014;DHT22;3547;50.774;12.918;2022-12-18T17:04:04;-3.80;99.90
7014;DHT22;3547;50.774;12.918;2022-12-18T17:06:34;-3.70;99.90
7014;DHT22;3547;50.774;12.918;2022-12-18T17:09:17;-3.70;99.90
7014;DHT22;3547;50.774;12.918;2022-12-18T17:11:45;-3.60;99.90
7014;DHT22;3547;50.774;12.918;2022-12-18T17:14:17;-3.60;99.90
7014;DHT22;3547;50.774;12.918;2022-12-18T17:16:44;-3.50;99.90
7014;DHT22;3547;50.774;12.918;2022-12-18T17:19:12;-3.50;99.90
7014;DHT22;3547;50.774;12.918;2022-12-18T17:21:38;-3.50;99.90
7014;DHT22;3547;50.774;12.918;2022-12-18T17:24:04;-3.40;99.90
7014;DHT22;3547;50.774;12.918;2022-12-18T17:26:31;-3.40;99.90
7014;DHT22;3547;50.774;12.918;2022-12-18T17:28:58;-3.40;99.90
7014;DHT22;3547;50.774;12.918;2022-12-18T17:31:26;-3.40;99.90
7014;DHT22;3547;50.774;12.918;2022-12-18T17:33:53;-3.40;99.90
7014;DHT22;3547;50.774;12.918;2022-12-18T17:36:20;-3.30;99.90
7014;DHT22;3547;50.774;12.918;2022-12-18T17:38:54;-3.30;99.90
7014;DHT22;3547;50.774;12.918;2022-12-18T17:41:21;-3.20;99.90
7014;DHT22;3547;50.774;12.918;2022-12-18T17:43:59;-3.20;99.90
7014;DHT22;3547;50.774;12.918;2022-12-18T17:46:26;-3.20;99.90
7014;DHT22;3547;50.774;12.918;2022-12-18T17:48:58;-3.20;99.90
7014;DHT22;3547;50.774;12.918;2022-12-18T17:51:24;-3.10;99.90
7014;DHT22;3547;50.774;12.918;2022-12-18T17:53:51;-3.10;99.90
7014;DHT22;3547;50.774;12.918;2022-12-18T17:56:20;-3.00;99.90
7014;DHT22;3547;50.774;12.918;2022-12-18T17:58:47;-2.90;99.90
7014;DHT22;3547;50.774;12.918;2022-12-18T18:01:17;-2.90;99.90
7014;DHT22;3547;50.774;12.918;2022-12-18T18:03:45;-2.80;99.90
7014;DHT22;3547;50.774;12.918;2022-12-18T18:06:12;-2.70;99.90
7014;DHT22;3547;50.774;12.918;2022-12-18T18:08:38;-2.70;99.90
7014;DHT22;3547;50.774;12.918;2022-12-18T18:11:06;-2.60;99.90
7014;DHT22;3547;50.774;12.918;2022-12-18T18:13:51;-2.60;99.90
7014;DHT22;3547;50.774;12.918;2022-12-18T18:16:33;-2.60;99.90
7014;DHT22;3547;50.774;12.918;2022-12-18T18:19:02;-2.50;99.90
7014;DHT22;3547;50.774;12.918;2022-12-18T18:21:30;-2.40;99.90
7014;DHT22;3547;50.774;12.918;2022-12-18T18:24:01;-2.40;99.90
7014;DHT22;3547;50.774;12.918;2022-12-18T18:26:30;-2.30;99.90
7014;DHT22;3547;50.774;12.918;2022-12-18T18:28:58;-2.30;99.90
7014;DHT22;3547;50.774;12.918;2022-12-18T18:31:25;-2.20;99.90
7014;DHT22;3547;50.774;12.918;2022-12-18T18:33:53;-2.20;99.90
7014;DHT22;3547;50.774;12.918;2022-12-18T18:36:20;-2.10;99.90
7014;DHT22;3547;50.774;12.918;2022-12-18T18:38:46;-2.00;99.90
7014;DHT22;3547;50.774;12.918;2022-12-18T18:41:13;-2.00;99.90
7014;DHT22;3547;50.774;12.918;2022-12-18T18:43:39;-2.00;99.90
7014;DHT22;3547;50.774;12.918;2022-12-18T18:46:05;-1.90;99.90
7014;DHT22;3547;50.774;12.918;2022-12-18T18:48:34;-1.90;99.90